Time;durP1;ratioP1;P1;durP2;ratioP2;P2;SDS_P1;SDS_P2;PMS_P1;PMS_P2;Temp;Humidity;BMP_temperature;BMP_pressure;BME280_temperature;BME280_humidity;BME280_pressure;Samples;Min_cycle;Max_cycle;Signal;HPM_P1;HPM_P2
2023/03/29 00:01:41;;;;;;;2.67;2.47;;;;;;;6.68;47.37;94968.97;5028446;28;20546;-50
2023/03/29 00:04:09;;;;;;;2.93;2.73;;;;;;;6.67;47.38;94962.28;5028370;28;20314;-48
2023/03/29 00:06:36;;;;;;;4.27;2.87;;;;;;;6.44;47.46;94930.06;5021732;28;20271;-48
2023/03/29 00:09:05;;;;;;;2.63;2.50;;;;;;;6.63;47.21;94970.22;5012486;28;20227;-50
2023/03/29 00:11:33;;;;;;;2.70;2.50;;;;;;;6.62;47.25;94976.25;5012072;28;20487;-49
2023/03/29 00:14:00;;;;;;;3.17;2.53;;;;;;;6.60;47.30;94973.78;5012480;28;20193;-48
2023/03/29 00:16:27;;;;;;;3.40;2.63;;;;;;;6.59;47.61;94974.72;5015123;28;20192;-48
2023/03/29 00:18:54;;;;;;;3.20;2.60;;;;;;;6.56;47.42;94976.66;5031509;28;20232;-49
2023/03/29 00:21:21;;;;;;;3.20;2.70;;;;;;;6.54;47.43;94979.31;5011886;28;20279;-49
2023/03/29 00:23:47;;;;;;;2.70;2.50;;;;;;;6.52;47.39;94973.53;5028011;28;20227;-49
2023/03/29 00:26:14;;;;;;;2.63;2.43;;;;;;;6.52;47.46;94976.06;5030284;28;20257;-51
2023/03/29 00:28:42;;;;;;;2.93;2.70;;;;;;;6.50;47.46;94971.06;5031519;28;20538;-49
2023/03/29 00:31:11;;;;;;;3.00;2.80;;;;;;;6.49;47.50;94972.00;5031948;28;20325;-48
2023/03/29 00:33:40;;;;;;;2.93;2.67;;;;;;;6.50;47.35;94980.44;5031487;28;20207;-48
2023/03/29 00:36:07;;;;;;;3.37;3.07;;;;;;;6.48;47.34;94978.00;5011945;28;20339;-48
2023/03/29 00:38:35;;;;;;;3.57;2.93;;;;;;;6.47;47.39;94976.38;5021960;28;20247;-48
2023/03/29 00:41:03;;;;;;;4.17;2.80;;;;;;;6.45;47.39;94979.94;5011584;28;20287;-50
2023/03/29 00:43:30;;;;;;;4.17;2.90;;;;;;;6.46;47.22;94976.47;5011818;28;20299;-48
2023/03/29 00:45:58;;;;;;;2.67;2.47;;;;;;;6.43;47.41;94976.69;5012736;28;20189;-49
2023/03/29 00:48:28;;;;;;;3.27;2.97;;;;;;;6.35;47.38;94959.44;5012645;28;20196;-49
2023/03/29 00:51:00;;;;;;;2.70;2.50;;;;;;;6.32;47.24;94969.00;5011567;28;20648;-51
2023/03/29 00:53:32;;;;;;;3.67;2.97;;;;;;;6.43;47.17;94971.59;5011271;28;20259;-54
2023/03/29 00:56:04;;;;;;;2.87;2.67;;;;;;;6.41;47.16;94981.88;5011311;28;20284;-49
2023/03/29 00:58:36;;;;;;;4.43;2.80;;;;;;;6.38;47.13;94983.81;5011446;28;20192;-49
2023/03/29 01:01:09;;;;;;;2.60;2.40;;;;;;;6.12;47.28;94940.69;5021160;28;20694;-50
2023/03/29 01:03:44;;;;;;;2.70;2.50;;;;;;;6.38;47.28;94988.88;5011418;28;20238;-53
2023/03/29 01:06:14;;;;;;;2.80;2.60;;;;;;;6.37;47.07;94988.09;5011006;28;20686;-53
2023/03/29 01:08:44;;;;;;;2.73;2.50;;;;;;;6.36;47.20;94983.13;5011367;28;20192;-53
2023/03/29 01:11:17;;;;;;;3.17;2.80;;;;;;;6.34;47.14;94992.56;5016425;28;20194;-48
2023/03/29 01:13:50;;;;;;;4.40;2.70;;;;;;;6.34;47.34;94995.91;5030655;28;20188;-49
2023/03/29 01:16:20;;;;;;;2.47;2.33;;;;;;;6.33;47.20;94990.94;5030556;28;20184;-50
2023/03/29 01:18:47;;;;;;;2.93;2.63;;;;;;;5.78;47.31;94917.56;5029989;28;20274;-48
2023/03/29 01:21:20;;;;;;;3.00;2.80;;;;;;;6.29;47.45;94988.59;5028759;28;20257;-47
2023/03/29 01:24:12;;;;;;;3.53;2.67;;;;;;;6.29;47.30;95010.66;5010738;28;20227;-48
2023/03/29 01:26:54;;;;;;;2.70;2.50;;;;;;;6.27;47.35;94994.72;5010941;28;20250;-50
2023/03/29 01:29:27;;;;;;;3.83;2.63;;;;;;;6.27;47.33;95004.88;5010955;28;20203;-48
2023/03/29 01:31:59;;;;;;;3.40;2.83;;;;;;;6.27;47.34;95008.22;5020060;28;20195;-51
2023/03/29 01:34:34;;;;;;;3.73;3.00;;;;;;;6.26;47.08;95006.59;5030268;28;20184;-50
2023/03/29 01:37:06;;;;;;;6.23;2.43;;;;;;;6.24;47.24;95003.34;5030728;28;20202;-49
2023/03/29 01:39:33;;;;;;;2.67;2.47;;;;;;;6.24;47.33;95010.97;5029819;28;20235;-54
2023/03/29 01:42:14;;;;;;;2.60;2.40;;;;;;;6.23;47.34;95003.47;5028806;28;20188;-51
2023/03/29 01:44:49;;;;;;;3.60;2.73;;;;;;;6.22;47.28;95001.84;5012177;28;20211;-47
2023/03/29 01:47:24;;;;;;;4.77;2.47;;;;;;;6.20;47.28;94994.31;5026713;28;20278;-49
2023/03/29 01:49:58;;;;;;;2.93;2.63;;;;;;;6.21;47.31;95002.72;5030244;28;20582;-48
2023/03/29 01:52:30;;;;;;;3.20;3.00;;;;;;;6.20;47.28;94994.31;5028475;28;20546;-49
2023/03/29 01:55:02;;;;;;;5.63;2.90;;;;;;;6.02;47.34;94965.09;5015483;28;20196;-49
2023/03/29 01:57:32;;;;;;;2.70;2.50;;;;;;;6.15;47.22;94985.38;5010495;28;20192;-48
2023/03/29 02:00:10;;;;;;;4.03;2.83;;;;;;;6.01;47.16;94968.53;5010518;28;20193;-49
2023/03/29 02:02:40;;;;;;;3.43;2.80;;;;;;;6.17;47.28;94998.78;5010898;28;20200;-50
2023/03/29 02:05:09;;;;;;;2.87;2.50;;;;;;;6.18;47.32;95002.97;5020584;28;20597;-48
2023/03/29 02:07:39;;;;;;;4.30;2.53;;;;;;;6.15;47.25;95003.16;5030027;28;20279;-50
2023/03/29 02:10:08;;;;;;;3.97;2.43;;;;;;;5.91;47.39;94963.22;5027140;28;20559;-55
2023/03/29 02:12:35;;;;;;;2.67;2.57;;;;;;;6.14;47.18;94999.81;5010445;28;20196;-49
2023/03/29 02:15:05;;;;;;;2.83;2.63;;;;;;;6.14;47.14;95004.06;5015430;28;20191;-51
2023/03/29 02:17:32;;;;;;;2.67;2.43;;;;;;;6.13;47.22;95003.28;5026951;28;20183;-53
2023/03/29 02:20:08;;;;;;;4.07;2.83;;;;;;;6.11;47.10;95001.75;5009896;28;20255;-58
2023/03/29 02:22:40;;;;;;;2.73;2.53;;;;;;;6.12;47.19;95004.16;5010038;28;20191;-49
2023/03/29 02:25:08;;;;;;;2.73;2.50;;;;;;;6.13;47.04;95010.88;5010424;28;20231;-48
2023/03/29 02:27:36;;;;;;;3.47;2.73;;;;;;;6.09;47.12;95012.00;5029552;28;20203;-50
2023/03/29 02:30:05;;;;;;;2.57;2.37;;;;;;;5.95;46.95;94987.50;5029267;28;20273;-54
2023/03/29 02:32:39;;;;;;;3.47;2.43;;;;;;;6.11;46.91;95015.25;5029610;28;20206;-51
2023/03/29 02:35:12;;;;;;;3.97;2.80;;;;;;;6.02;46.98;95008.25;5027494;28;20555;-52
2023/03/29 02:37:43;;;;;;;3.50;3.07;;;;;;;6.08;46.97;95017.16;5014069;28;20220;-51
2023/03/29 02:40:13;;;;;;;2.93;2.53;;;;;;;6.06;47.03;95022.34;5009594;28;20192;-48
2023/03/29 02:42:40;;;;;;;2.83;2.53;;;;;;;6.06;46.93;95024.91;5009684;28;20672;-49
2023/03/29 02:45:12;;;;;;;7.80;2.53;;;;;;;6.05;46.87;95030.09;5010428;28;20691;-50
2023/03/29 02:47:44;;;;;;;4.47;2.73;;;;;;;6.05;46.88;95032.63;5022088;28;20636;-48
2023/03/29 02:50:11;;;;;;;2.83;2.63;;;;;;;6.05;46.92;95035.16;5028968;28;20192;-51
2023/03/29 02:52:42;;;;;;;3.07;2.77;;;;;;;5.93;46.88;95019.00;5028958;28;20254;-51
2023/03/29 02:55:14;;;;;;;2.77;2.53;;;;;;;6.02;46.81;95043.78;5028762;28;20246;-47
2023/03/29 02:57:42;;;;;;;3.40;2.60;;;;;;;5.96;47.06;95034.84;5027416;28;20349;-50
2023/03/29 03:00:18;;;;;;;3.07;2.77;;;;;;;6.00;46.72;95048.13;5028116;28;20195;-52
2023/03/29 03:02:46;;;;;;;2.80;2.60;;;;;;;5.99;46.95;95043.97;5009544;28;20246;-53
2023/03/29 03:05:13;;;;;;;2.83;2.60;;;;;;;5.98;47.04;95035.56;5009558;28;20212;-52
2023/03/29 03:07:40;;;;;;;2.80;2.60;;;;;;;5.75;47.16;95009.13;5010382;28;20204;-50
2023/03/29 03:10:08;;;;;;;4.90;2.80;;;;;;;5.98;47.22;95049.97;5009424;28;20254;-49
2023/03/29 03:12:36;;;;;;;2.90;2.60;;;;;;;5.97;47.19;95050.91;5009606;28;20200;-48
2023/03/29 03:15:04;;;;;;;2.90;2.70;;;;;;;5.94;47.27;95051.09;5009255;28;20680;-49
2023/03/29 03:17:33;;;;;;;2.63;2.43;;;;;;;5.95;47.34;95057.78;5014198;28;20192;-48
2023/03/29 03:20:00;;;;;;;4.57;3.03;;;;;;;5.95;47.25;95068.75;5021940;28;20726;-48
2023/03/29 03:22:26;;;;;;;2.83;2.63;;;;;;;5.70;47.45;95031.47;5009478;28;20200;-49
2023/03/29 03:24:54;;;;;;;3.67;3.00;;;;;;;5.88;47.41;95067.50;5024664;28;20223;-52
2023/03/29 03:27:21;;;;;;;2.60;2.40;;;;;;;5.92;47.36;95070.69;5021388;28;20200;-49
2023/03/29 03:29:48;;;;;;;4.17;2.50;;;;;;;5.91;47.41;95076.63;5009344;28;20268;-49
2023/03/29 03:32:15;;;;;;;2.90;2.60;;;;;;;5.88;47.36;95082.72;5009048;28;20294;-52
2023/03/29 03:34:43;;;;;;;3.63;2.80;;;;;;;5.76;47.41;95063.22;5008986;28;20204;-49
2023/03/29 03:37:11;;;;;;;2.97;2.73;;;;;;;5.91;47.30;95094.41;5009252;28;20292;-49
2023/03/29 03:39:38;;;;;;;2.97;2.67;;;;;;;5.90;47.21;95095.31;5016522;28;20627;-50
2023/03/29 03:42:05;;;;;;;6.03;2.60;;;;;;;5.39;47.26;95011.50;5032408;28;20188;-51
2023/03/29 03:44:32;;;;;;;2.90;2.60;;;;;;;5.89;47.11;95097.03;5032722;28;20289;-50
2023/03/29 03:46:59;;;;;;;2.77;2.57;;;;;;;5.89;47.18;95101.31;5032599;28;20198;-52
2023/03/29 03:49:25;;;;;;;4.37;3.10;;;;;;;5.81;47.09;95093.38;5030784;28;20238;-52
2023/03/29 03:51:53;;;;;;;3.00;2.70;;;;;;;5.87;47.02;95105.66;5012662;28;20243;-50
2023/03/29 03:54:20;;;;;;;3.00;2.70;;;;;;;5.86;46.98;95102.31;5029755;28;20749;-49
2023/03/29 03:56:48;;;;;;;4.10;2.50;;;;;;;5.89;46.95;95108.94;5032259;28;20196;-49
2023/03/29 03:59:15;;;;;;;3.10;2.30;;;;;;;5.63;46.68;95054.78;5030895;28;20286;-49
2023/03/29 04:01:42;;;;;;;3.07;2.73;;;;;;;5.87;46.75;95109.03;5026248;28;20234;-49
2023/03/29 04:04:10;;;;;;;4.67;2.90;;;;;;;5.87;46.82;95101.41;5032115;28;20309;-49
2023/03/29 04:06:37;;;;;;;3.37;2.90;;;;;;;5.86;46.78;95093.88;5032284;28;20279;-49
2023/03/29 04:09:05;;;;;;;2.53;2.33;;;;;;;5.41;46.69;95024.91;5015963;28;20184;-49
2023/03/29 04:11:32;;;;;;;4.13;2.73;;;;;;;5.83;46.58;95091.53;5012464;28;20282;-49
2023/03/29 04:13:59;;;;;;;5.40;2.63;;;;;;;5.89;46.68;95103.84;5012149;28;20644;-49
2023/03/29 04:16:26;;;;;;;3.73;2.50;;;;;;;5.88;46.40;95105.56;5012486;28;20193;-49
2023/03/29 04:18:53;;;;;;;2.93;2.20;;;;;;;5.88;46.46;95105.56;5012014;28;20184;-50
2023/03/29 04:21:20;;;;;;;2.90;2.43;;;;;;;5.90;46.22;95108.81;5013266;28;20204;-48
2023/03/29 04:23:47;;;;;;;2.70;2.50;;;;;;;5.91;46.22;95110.44;5012000;28;20741;-52
2023/03/29 04:26:16;;;;;;;4.83;2.50;;;;;;;5.90;46.10;95111.34;5012153;28;20653;-51
2023/03/29 04:28:43;;;;;;;6.13;3.13;;;;;;;5.93;46.16;95112.94;5012095;28;20294;-49
2023/03/29 04:31:11;;;;;;;3.30;3.00;;;;;;;5.92;46.05;95108.78;5020820;28;20184;-53
2023/03/29 04:33:39;;;;;;;3.63;2.70;;;;;;;5.96;45.96;95117.81;5012785;28;20588;-55
2023/03/29 04:36:07;;;;;;;2.80;2.40;;;;;;;5.99;46.08;95125.22;5012083;28;20195;-56
2023/03/29 04:38:34;;;;;;;3.73;2.20;;;;;;;5.56;45.68;95049.28;5012156;28;20279;-49
2023/03/29 04:41:02;;;;;;;2.83;2.53;;;;;;;6.06;45.72;95116.28;5013076;28;20904;-48
2023/03/29 04:43:31;;;;;;;3.20;2.90;;;;;;;5.99;45.90;95104.91;5024132;28;20575;-50
2023/03/29 04:45:58;;;;;;;4.87;2.70;;;;;;;5.97;45.54;95099.94;5031583;28;20315;-49
2023/03/29 04:48:25;;;;;;;4.53;3.07;;;;;;;6.19;45.67;95127.28;5029486;28;20211;-49
2023/03/29 04:50:53;;;;;;;3.20;2.90;;;;;;;6.24;45.58;95127.78;5013902;28;20232;-48
2023/03/29 04:53:21;;;;;;;8.33;2.67;;;;;;;6.52;83.29;95129.31;5017553;28;20259;-51
2023/03/29 04:55:48;;;;;;;3.73;3.23;;;;;;;7.89;100.00;95130.81;5030118;28;20274;-52
2023/03/29 04:58:14;;;;;;;3.47;3.10;;;;;;;9.21;100.00;95137.16;5031400;28;20191;-50
2023/03/29 05:00:43;;;;;;;2.37;2.17;;;;;;;10.41;89.75;95131.03;5028012;28;20181;-49
2023/03/29 05:03:13;;;;;;;8.77;2.50;;;;;;;11.46;82.22;95141.00;5011634;28;20187;-53
2023/03/29 05:05:40;;;;;;;4.47;1.90;;;;;;;12.40;77.45;95138.75;5011123;28;20674;-51
2023/03/29 05:08:08;;;;;;;3.37;1.77;;;;;;;13.23;74.15;95143.09;5014070;28;20177;-50
2023/03/29 05:10:35;;;;;;;1.83;1.73;;;;;;;13.85;70.67;95120.13;5030825;28;20191;-50
2023/03/29 05:13:02;;;;;;;3.57;2.10;;;;;;;14.83;68.54;95159.47;5030913;28;20192;-52
2023/03/29 05:15:30;;;;;;;2.80;1.80;;;;;;;15.65;66.54;95162.44;5030906;28;20195;-53
2023/03/29 05:17:59;;;;;;;8.40;2.03;;;;;;;16.49;64.12;95162.22;5030429;28;20279;-51
2023/03/29 05:20:27;;;;;;;2.13;1.80;;;;;;;17.19;61.11;95155.66;5030333;28;20196;-51
2023/03/29 05:22:54;;;;;;;6.20;1.70;;;;;;;17.62;58.75;95169.84;5030950;28;20195;-49
2023/03/29 05:25:20;;;;;;;2.20;2.00;;;;;;;17.89;57.06;95172.97;5027486;28;20227;-50
2023/03/29 05:27:47;;;;;;;1.93;1.77;;;;;;;18.03;56.40;95175.63;5028252;28;20194;-49
2023/03/29 05:30:15;;;;;;;1.70;1.60;;;;;;;18.01;55.07;95175.00;5027027;28;20188;-51
2023/03/29 05:32:42;;;;;;;2.67;1.97;;;;;;;18.08;53.54;95176.88;5016210;28;20290;-49
2023/03/29 05:35:10;;;;;;;2.40;2.20;;;;;;;18.21;51.54;95153.81;5018699;28;20668;-50
2023/03/29 05:37:37;;;;;;;2.20;2.00;;;;;;;18.73;49.74;95181.59;5017376;28;20228;-50
2023/03/29 05:40:07;;;;;;;2.07;1.90;;;;;;;19.26;48.33;95167.63;5015344;28;20196;-49
2023/03/29 05:42:34;;;;;;;1.90;1.80;;;;;;;19.91;46.80;95178.19;5011149;28;20188;-47
2023/03/29 05:45:00;;;;;;;2.80;2.10;;;;;;;20.52;45.75;95165.63;5021181;28;20215;-48
2023/03/29 05:47:28;;;;;;;2.47;2.00;;;;;;;21.02;44.65;95171.56;5017637;28;20192;-48
2023/03/29 05:49:56;;;;;;;1.80;1.70;;;;;;;21.13;44.68;95178.06;5023157;28;20184;-50
2023/03/29 05:52:24;;;;;;;3.60;1.90;;;;;;;20.99;44.94;95172.78;5016817;28;20204;-49
2023/03/29 05:54:51;;;;;;;5.87;2.07;;;;;;;20.88;44.47;95182.88;5010913;28;20255;-50
2023/03/29 05:57:17;;;;;;;4.30;2.07;;;;;;;20.62;44.28;95178.28;5020602;28;20207;-49
2023/03/29 05:59:45;;;;;;;4.13;2.10;;;;;;;20.32;43.66;95181.00;5021883;28;20662;-49
2023/03/29 06:02:14;;;;;;;1.87;1.77;;;;;;;19.98;43.13;95179.06;5023055;28;20569;-49
2023/03/29 06:04:42;;;;;;;1.97;1.87;;;;;;;19.61;42.35;95186.03;5015088;28;20246;-49
2023/03/29 06:07:09;;;;;;;2.00;1.90;;;;;;;19.23;41.54;95187.91;5014412;28;20184;-49
2023/03/29 06:09:38;;;;;;;2.43;2.03;;;;;;;18.80;40.63;95188.50;5013195;28;20204;-49
2023/03/29 06:12:05;;;;;;;5.50;2.50;;;;;;;18.38;40.03;95191.56;5022778;28;20536;-50
2023/03/29 06:14:32;;;;;;;2.87;2.20;;;;;;;18.02;39.51;95193.91;5014887;28;20192;-50
2023/03/29 06:17:00;;;;;;;3.63;2.53;;;;;;;17.64;39.64;95205.88;5018998;28;20207;-49
2023/03/29 06:19:27;;;;;;;3.03;2.10;;;;;;;17.27;39.01;95195.19;5021782;28;20205;-48
2023/03/29 06:21:53;;;;;;;2.67;2.13;;;;;;;16.93;38.90;95202.38;5015585;28;20652;-50
2023/03/29 06:24:20;;;;;;;4.67;2.50;;;;;;;16.62;38.67;95204.78;5016592;28;20256;-48
2023/03/29 06:26:49;;;;;;;4.00;2.40;;;;;;;16.31;38.48;95201.06;5014329;28;20196;-49
2023/03/29 06:29:16;;;;;;;2.97;2.03;;;;;;;16.04;38.61;95202.16;5020493;28;20194;-49
2023/03/29 06:31:43;;;;;;;6.80;2.33;;;;;;;15.80;38.53;95212.41;5023486;28;20200;-51
2023/03/29 06:34:12;;;;;;;3.77;2.67;;;;;;;15.55;38.32;95208.94;5014844;28;20196;-50
2023/03/29 06:36:39;;;;;;;2.30;2.10;;;;;;;15.30;38.50;95219.13;5014458;28;20683;-48
2023/03/29 06:39:06;;;;;;;3.37;2.30;;;;;;;15.06;38.48;95222.38;5019449;28;20638;-49
2023/03/29 06:41:33;;;;;;;3.73;2.10;;;;;;;14.82;38.28;95229.16;5015199;28;20250;-49
2023/03/29 06:44:02;;;;;;;2.67;2.07;;;;;;;14.61;38.14;95226.91;5019668;28;20185;-51
2023/03/29 06:46:29;;;;;;;2.50;2.30;;;;;;;14.40;38.13;95238.28;5015748;28;20803;-48
2023/03/29 06:48:56;;;;;;;5.57;2.70;;;;;;;14.14;38.09;95222.78;5011775;28;20726;-49
2023/03/29 06:51:23;;;;;;;4.00;2.30;;;;;;;14.08;38.09;95238.00;5014276;28;20190;-52
2023/03/29 06:53:50;;;;;;;3.43;2.43;;;;;;;13.96;38.06;95242.53;5018177;28;20224;-48
2023/03/29 06:56:17;;;;;;;2.27;2.17;;;;;;;13.83;38.16;95229.22;5021821;28;20222;-49
2023/03/29 06:58:44;;;;;;;2.73;2.20;;;;;;;13.78;38.00;95230.44;5015937;28;20192;-51
2023/03/29 07:01:12;;;;;;;2.53;2.20;;;;;;;13.61;38.06;95213.22;5012191;28;20195;-49
2023/03/29 07:03:40;;;;;;;2.37;2.17;;;;;;;13.76;38.12;95224.63;5014332;28;20543;-50
2023/03/29 07:06:10;;;;;;;2.60;2.07;;;;;;;13.79;38.09;95224.34;5023101;28;20224;-51
2023/03/29 07:08:42;;;;;;;1.90;1.80;;;;;;;13.84;38.19;95229.06;5009830;28;20235;-50
2023/03/29 07:11:11;;;;;;;3.60;1.90;;;;;;;14.06;38.27;95220.13;5019639;28;20663;-48
2023/03/29 07:13:38;;;;;;;2.77;1.80;;;;;;;14.44;38.41;95233.66;5020799;28;20184;-49
2023/03/29 07:16:07;;;;;;;2.10;1.97;;;;;;;14.59;38.69;95239.09;5021842;28;20199;-48
2023/03/29 07:18:35;;;;;;;2.20;2.00;;;;;;;14.57;38.31;95216.09;5016882;28;20584;-49
2023/03/29 07:21:03;;;;;;;3.70;2.13;;;;;;;14.78;38.42;95242.31;5023562;28;20340;-49
2023/03/29 07:23:30;;;;;;;3.97;2.30;;;;;;;14.85;38.10;95241.72;5019578;28;20185;-49
2023/03/29 07:25:56;;;;;;;11.37;2.50;;;;;;;14.92;37.92;95246.13;5023680;28;20220;-48
2023/03/29 07:28:23;;;;;;;2.20;2.00;;;;;;;14.92;38.02;95240.97;5017217;28;20190;-50
2023/03/29 07:30:50;;;;;;;3.63;2.20;;;;;;;14.92;37.74;95232.44;5019744;28;20192;-48
2023/03/29 07:33:17;;;;;;;2.30;2.10;;;;;;;14.69;37.57;95214.91;5027736;28;20616;-48
2023/03/29 07:35:46;;;;;;;2.57;2.33;;;;;;;14.95;37.44;95239.88;5013190;28;20297;-49
2023/03/29 07:38:14;;;;;;;2.47;2.27;;;;;;;15.04;37.38;95239.78;5025308;28;20242;-49
2023/03/29 07:40:41;;;;;;;2.53;2.30;;;;;;;15.09;37.28;95225.63;5024977;28;20199;-50
2023/03/29 07:43:09;;;;;;;3.03;2.60;;;;;;;15.16;37.20;95231.78;5019505;28;20196;-53
2023/03/29 07:45:39;;;;;;;2.30;2.17;;;;;;;15.21;37.20;95217.47;5023206;28;20242;-48
2023/03/29 07:48:07;;;;;;;3.43;2.33;;;;;;;15.35;37.20;95221.25;5024824;28;20604;-48
2023/03/29 07:50:34;;;;;;;3.77;2.13;;;;;;;15.60;37.38;95223.94;5019256;28;20184;-49
2023/03/29 07:53:02;;;;;;;2.83;1.90;;;;;;;15.85;37.30;95224.88;5019615;28;20219;-49
2023/03/29 07:55:29;;;;;;;2.23;1.67;;;;;;;16.28;37.29;95214.31;5015348;28;20207;-48
2023/03/29 07:57:56;;;;;;;2.53;2.30;;;;;;;16.67;37.22;95213.69;5025696;28;20200;-49
2023/03/29 08:00:23;;;;;;;2.97;2.20;;;;;;;16.93;37.61;95220.47;5025537;28;20187;-49
2023/03/29 08:02:52;;;;;;;2.53;2.20;;;;;;;17.18;37.63;95210.88;5016962;28;20275;-50
2023/03/29 08:05:21;;;;;;;2.70;1.80;;;;;;;17.62;37.50;95210.44;5024572;28;20239;-48
2023/03/29 08:07:49;;;;;;;2.27;2.00;;;;;;;18.08;37.37;95208.75;5020347;28;20595;-49
2023/03/29 08:10:18;;;;;;;1.90;1.80;;;;;;;18.60;37.04;95194.31;5023701;28;20674;-51
2023/03/29 08:12:46;;;;;;;1.73;1.63;;;;;;;19.09;37.29;95194.72;5031090;28;20275;-49
2023/03/29 08:15:14;;;;;;;3.97;1.83;;;;;;;19.40;37.05;95196.31;5022818;28;20255;-49
2023/03/29 08:17:41;;;;;;;1.70;1.60;;;;;;;19.47;37.09;95169.50;5017464;28;20200;-50
2023/03/29 08:20:10;;;;;;;2.73;1.80;;;;;;;19.73;37.11;95196.75;5023616;28;20281;-49
2023/03/29 08:22:38;;;;;;;1.83;1.70;;;;;;;20.00;37.00;95197.88;5019072;28;20180;-50
2023/03/29 08:25:05;;;;;;;2.50;1.73;;;;;;;20.10;36.85;95198.38;5020241;28;20306;-49
2023/03/29 08:27:34;;;;;;;1.90;1.80;;;;;;;20.05;36.61;95175.56;5015596;28;20204;-49
2023/03/29 08:30:01;;;;;;;2.10;1.77;;;;;;;20.38;36.54;95190.66;5021509;28;20211;-48
2023/03/29 08:32:28;;;;;;;2.37;1.73;;;;;;;20.67;35.98;95188.94;5020086;28;20185;-51
2023/03/29 08:34:55;;;;;;;2.13;1.87;;;;;;;21.00;35.77;95187.38;5023253;28;20176;-50
2023/03/29 08:37:23;;;;;;;2.63;1.80;;;;;;;21.29;35.79;95191.56;5017612;28;20227;-50
2023/03/29 08:39:50;;;;;;;2.17;1.97;;;;;;;21.50;35.71;95200.28;5019542;28;20208;-50
2023/03/29 08:42:48;;;;;;;1.80;1.70;;;;;;;21.67;36.06;95187.75;5020185;28;20625;-50
2023/03/29 08:45:23;;;;;;;1.70;1.60;;;;;;;21.83;35.81;95192.63;5021982;28;20199;-51
2023/03/29 08:47:58;;;;;;;2.05;1.95;;;;;;;21.92;35.75;95188.84;5015407;28;20187;-50
2023/03/29 08:50:32;;;;;;;2.15;1.60;;;;;;;21.97;35.61;95177.84;5022017;28;20211;-49
2023/03/29 08:53:04;;;;;;;2.30;1.75;;;;;;;22.03;35.56;95185.69;5022609;28;20220;-50
2023/03/29 08:55:36;;;;;;;2.47;1.88;;;;;;;22.09;35.35;95183.31;5020198;28;20643;-49
2023/03/29 08:58:07;;;;;;;2.10;1.90;;;;;;;22.10;35.15;95187.50;5018145;28;20196;-51
2023/03/29 09:00:39;;;;;;;1.95;1.80;;;;;;;22.05;34.84;95183.69;5020807;28;20627;-49
2023/03/29 09:03:19;;;;;;;1.90;1.77;;;;;;;21.98;34.46;95172.47;5014525;28;20215;-49
2023/03/29 09:05:48;;;;;;;2.22;1.67;;;;;;;21.98;34.39;95177.69;5019603;28;20223;-51
2023/03/29 09:08:16;;;;;;;2.47;1.58;;;;;;;21.90;34.65;95170.03;5016414;28;20687;-50
2023/03/29 09:10:47;;;;;;;1.40;1.40;;;;;;;21.91;34.37;95168.22;5018547;28;20209;-57
2023/03/29 09:13:30;;;;;;;1.90;1.80;;;;;;;21.87;34.18;95182.63;5023040;28;20198;-51
2023/03/29 09:16:08;;;;;;;2.50;1.77;;;;;;;21.79;33.79;95165.38;5020827;28;20477;-49
2023/03/29 09:18:49;;;;;;;1.83;1.73;;;;;;;21.66;33.92;95166.13;5016347;28;20192;-50
2023/03/29 09:21:21;;;;;;;1.55;1.45;;;;;;;21.53;33.69;95172.09;5019564;28;20661;-51
2023/03/29 09:24:10;;;;;;;2.08;1.80;;;;;;;21.41;33.43;95157.22;5016181;28;20818;-49
2023/03/29 09:26:41;;;;;;;2.67;1.73;;;;;;;21.40;31.88;95155.63;5021644;28;20469;-50
2023/03/29 09:29:25;;;;;;;1.77;1.60;;;;;;;21.30;32.20;95159.34;5018563;28;20674;-52
2023/03/29 09:31:56;;;;;;;2.28;1.70;;;;;;;20.78;32.43;95102.63;5018837;28;20586;-49
2023/03/29 09:34:30;;;;;;;2.58;1.58;;;;;;;21.05;32.36;95160.81;5018445;28;20216;-53
2023/03/29 09:37:03;;;;;;;2.35;1.70;;;;;;;20.91;32.22;95151.31;5014509;28;20290;-56
2023/03/29 09:39:29;;;;;;;2.30;1.65;;;;;;;20.71;32.24;95149.38;5027434;28;20192;-51
2023/03/29 09:42:02;;;;;;;1.75;1.65;;;;;;;20.61;32.24;95161.91;5011324;28;20218;-50
2023/03/29 09:44:37;;;;;;;3.10;1.70;;;;;;;20.44;31.99;95161.31;5014100;28;20215;-49
2023/03/29 09:47:09;;;;;;;2.00;1.77;;;;;;;20.25;31.76;95152.38;5018851;28;20215;-50
2023/03/29 09:49:41;;;;;;;2.73;1.73;;;;;;;20.08;31.77;95152.78;5012422;28;20211;-50
2023/03/29 09:52:12;;;;;;;1.93;1.73;;;;;;;19.90;31.59;95161.00;5021507;28;20189;-51
2023/03/29 09:54:40;;;;;;;2.27;1.60;;;;;;;19.72;31.57;95153.63;5015027;28;20224;-48
2023/03/29 09:57:09;;;;;;;3.83;1.63;;;;;;;19.45;31.32;95136.91;5017231;28;20196;-51
2023/03/29 09:59:36;;;;;;;2.20;1.50;;;;;;;19.34;31.24;95143.34;5027638;28;20192;-54
2023/03/29 10:02:10;;;;;;;1.60;1.50;;;;;;;19.05;31.07;95124.25;5011486;28;20192;-49
2023/03/29 10:04:38;;;;;;;4.73;2.13;;;;;;;19.04;31.01;95145.16;5015162;28;20717;-49
2023/03/29 10:07:06;;;;;;;2.10;1.90;;;;;;;18.72;30.91;95118.59;5018490;28;21094;-49
2023/03/29 10:09:34;;;;;;;3.27;1.77;;;;;;;18.75;30.95;95151.94;5012162;28;20219;-51
2023/03/29 10:12:05;;;;;;;2.30;1.80;;;;;;;18.47;30.89;95120.59;5022315;28;20640;-51
2023/03/29 10:14:37;;;;;;;1.77;1.67;;;;;;;18.47;30.81;95148.28;5021540;28;20188;-49
2023/03/29 10:17:06;;;;;;;3.00;1.67;;;;;;;18.35;30.87;95142.72;5017661;28;20192;-51
2023/03/29 10:19:36;;;;;;;2.00;1.67;;;;;;;18.23;30.68;95138.94;5017978;28;20202;-49
2023/03/29 10:22:06;;;;;;;1.53;1.43;;;;;;;18.11;30.63;95137.72;5024555;28;20192;-50
2023/03/29 10:24:33;;;;;;;2.00;1.63;;;;;;;18.01;30.63;95140.56;5014813;28;20698;-49
2023/03/29 10:27:02;;;;;;;1.77;1.67;;;;;;;17.92;30.67;95131.19;5024497;28;20619;-49
2023/03/29 10:29:36;;;;;;;1.70;1.60;;;;;;;17.75;30.33;95126.16;5019496;28;20610;-49
2023/03/29 10:32:14;;;;;;;1.77;1.60;;;;;;;17.70;30.41;95130.19;5021144;28;20207;-52
2023/03/29 10:34:43;;;;;;;3.00;1.60;;;;;;;17.61;30.31;95124.25;5016409;28;20219;-50
2023/03/29 10:37:13;;;;;;;2.43;1.77;;;;;;;17.51;30.41;95126.25;5018971;28;20179;-55
2023/03/29 10:39:40;;;;;;;1.63;1.53;;;;;;;17.41;30.17;95123.09;5024077;28;20279;-49
2023/03/29 10:42:13;;;;;;;1.93;1.60;;;;;;;17.35;30.28;95121.16;5016449;28;20193;-49
2023/03/29 10:44:40;;;;;;;2.00;1.80;;;;;;;17.27;30.16;95111.66;5014303;28;20192;-49
2023/03/29 10:47:09;;;;;;;3.43;1.90;;;;;;;17.18;30.22;95107.50;5019652;28;20239;-49
2023/03/29 10:49:43;;;;;;;2.17;1.97;;;;;;;17.07;30.34;95100.13;5022068;28;20188;-51
2023/03/29 10:52:13;;;;;;;1.80;1.70;;;;;;;17.03;30.17;95109.97;5020020;28;20211;-50
2023/03/29 10:54:40;;;;;;;1.63;1.53;;;;;;;16.96;29.87;95103.84;5016845;28;20228;-49
2023/03/29 10:57:10;;;;;;;2.10;1.80;;;;;;;16.89;30.00;95103.75;5016450;28;20194;-51
2023/03/29 10:59:48;;;;;;;2.47;1.63;;;;;;;16.83;30.03;95095.84;5017128;28;20216;-50
2023/03/29 11:02:46;;;;;;;2.20;2.00;;;;;;;16.76;30.08;95101.66;5015323;28;20191;-50
2023/03/29 11:05:27;;;;;;;2.50;1.83;;;;;;;16.72;29.93;95095.22;5033045;28;20211;-49
2023/03/29 11:08:18;;;;;;;2.57;1.70;;;;;;;16.66;30.08;95103.56;5013752;28;20235;-49
2023/03/29 11:10:53;;;;;;;3.77;1.97;;;;;;;16.65;30.13;95103.75;5005732;28;20203;-48
2023/03/29 11:13:32;;;;;;;3.37;1.87;;;;;;;16.61;30.26;95095.53;5018825;28;20215;-49
2023/03/29 11:16:08;;;;;;;1.67;1.57;;;;;;;16.58;30.06;95085.56;5030389;28;20196;-50
2023/03/29 11:18:51;;;;;;;1.77;1.67;;;;;;;16.58;30.22;95084.72;5015067;28;20203;-54
2023/03/29 11:21:28;;;;;;;3.47;2.00;;;;;;;16.69;30.92;95084.38;5015379;28;20738;-53
2023/03/29 11:24:10;;;;;;;1.93;1.77;;;;;;;16.76;31.96;95081.00;5012585;28;20306;-53
2023/03/29 11:26:51;;;;;;;3.63;1.87;;;;;;;16.86;33.22;95077.41;5028361;28;20247;-53
2023/03/29 11:29:23;;;;;;;2.93;1.77;;;;;;;16.96;33.90;95090.94;5021647;28;20203;-53
2023/03/29 11:31:57;;;;;;;6.80;1.80;;;;;;;17.23;45.28;95100.06;5015943;28;20192;-51
2023/03/29 11:34:33;;;;;;;2.90;1.80;;;;;;;17.44;43.01;95082.19;5018344;28;20206;-52
2023/03/29 11:37:15;;;;;;;1.97;1.87;;;;;;;17.47;41.11;95084.41;5022342;28;20187;-51
2023/03/29 11:39:48;;;;;;;3.97;1.93;;;;;;;17.41;40.47;95087.69;5014499;28;20291;-52
2023/03/29 11:42:20;;;;;;;3.83;1.73;;;;;;;17.30;39.66;95098.41;5010790;28;20187;-52
2023/03/29 11:44:50;;;;;;;2.00;1.60;;;;;;;17.21;38.75;95091.66;5014258;28;20208;-50
2023/03/29 11:47:20;;;;;;;2.47;1.90;;;;;;;17.10;38.28;95086.84;5010909;28;20213;-50
2023/03/29 11:49:53;;;;;;;2.03;1.83;;;;;;;16.99;37.33;95080.28;5008914;28;20196;-50